createdAt,value
2023-11-03T11:54:24.855Z,94229.31
2023-11-03T18:07:16.960Z,94576.34
2023-11-03T18:09:21.997Z,94575.38
2023-11-03T18:11:27.228Z,94581.25
2023-11-03T18:13:32.845Z,94592.22
2023-11-03T18:15:38.108Z,94586.31
2023-11-03T18:17:41.443Z,94583.03
2023-11-03T18:19:47.293Z,94585.38
2023-11-03T18:21:52.174Z,94592.16
2023-11-03T18:24:00.398Z,94591.72
2023-11-03T18:26:06.153Z,94597.44
2023-11-03T18:28:12.631Z,94603.47
2023-11-03T18:30:17.807Z,94610.59
2023-11-03T18:32:20.208Z,94618.47
2023-11-03T18:34:25.417Z,94615.09
2023-11-03T18:36:30.533Z,94610.59
2023-11-03T18:38:35.554Z,94617.84
2023-11-03T18:40:44.221Z,94623.91
2023-11-03T18:42:47.040Z,94620.94
2023-11-03T18:44:51.887Z,94616.44
2023-11-03T18:46:56.778Z,94617.22
2023-11-03T18:49:01.709Z,94621.41
2023-11-03T18:51:25.761Z,94622.19
2023-11-03T18:57:06.850Z,94629.94
2023-11-03T18:58:48.030Z,94641.53
2023-11-03T19:06:02.315Z,94648.00
2023-11-03T19:07:34.460Z,94653.41
2023-11-03T19:09:43.347Z,94655.41
2023-11-03T19:11:51.328Z,94661.13
2023-11-03T19:13:56.290Z,94664.50
2023-11-03T19:16:02.002Z,94669.00
2023-11-03T19:18:07.534Z,94670.09
2023-11-03T19:20:14.228Z,94672.72
2023-11-03T19:22:19.238Z,94677.09
2023-11-03T19:24:24.689Z,94682.69
2023-11-03T19:26:30.119Z,94678.03
2023-11-03T19:28:37.615Z,94680.66
2023-11-03T19:30:44.861Z,94679.91
2023-11-03T19:32:51.587Z,94684.72
2023-11-03T19:34:56.562Z,94678.97
2023-11-03T19:37:01.470Z,94689.81
2023-11-03T19:39:07.197Z,94692.78
2023-11-03T19:41:12.860Z,94694.63
2023-11-03T19:43:17.875Z,94702.84
2023-11-03T19:45:25.584Z,94710.28
2023-11-03T19:47:28.157Z,94715.41
2023-11-03T19:49:34.780Z,94715.72
2023-11-03T19:51:39.896Z,94706.59
2023-11-03T19:53:44.965Z,94714.03
2023-11-03T19:55:52.697Z,94714.63
2023-11-03T19:57:57.739Z,94712.63
2023-11-03T20:00:02.687Z,94718.53
2023-11-03T20:02:12.354Z,94714.22
2023-11-03T20:04:17.384Z,94712.97
2023-11-03T20:06:23.158Z,94713.28
2023-11-03T20:08:28.229Z,94715.16
2023-11-03T20:10:33.680Z,94725.69
2023-11-03T20:12:38.851Z,94718.84
2023-11-03T20:14:43.804Z,94719.97
2023-11-03T20:16:50.279Z,94717.94
2023-11-03T20:18:57.989Z,94730.63
2023-11-03T20:21:03.164Z,94730.94
2023-11-03T20:23:08.164Z,94728.94
2023-11-03T20:25:11.048Z,94732.34
2023-11-03T20:27:16.705Z,94736.53
2023-11-03T20:29:21.634Z,94739.47
2023-11-03T20:31:26.484Z,94740.09
2023-11-03T20:33:31.600Z,94743.03
2023-11-03T20:35:36.494Z,94760.34
2023-11-03T20:37:41.605Z,94756.94
2023-11-03T20:39:46.584Z,94760.97
2023-11-03T20:41:53.063Z,94763.59
2023-11-03T20:43:58.028Z,94762.81
2023-11-03T20:46:03.880Z,94760.97
2023-11-03T20:48:09.184Z,94764.38
2023-11-03T20:50:16.108Z,94765.91
2023-11-03T20:52:23.617Z,94761.44
2023-11-03T20:54:29.731Z,94767.47
2023-11-03T20:56:34.663Z,94762.19
2023-11-03T20:58:39.614Z,94772.72
2023-11-03T21:00:45.363Z,94767.47
2023-11-03T21:02:50.650Z,94769.03
2023-11-03T21:04:56.467Z,94769.78
2023-11-03T21:06:59.062Z,94761.88
2023-11-03T21:09:07.805Z,94766.06
2023-11-03T21:11:13.438Z,94764.97
2023-11-03T21:13:18.470Z,94762.06
2023-11-03T21:15:23.465Z,94768.84
2023-11-03T21:17:25.756Z,94782.47
2023-11-03T21:19:35.057Z,94775.34
2023-11-03T21:21:40.985Z,94778.75
2023-11-03T21:23:48.982Z,94779.84
2023-11-03T21:25:58.341Z,94782.00
2023-11-03T21:28:03.434Z,94780.16
2023-11-03T21:30:09.491Z,94775.66
2023-11-03T21:32:14.445Z,94777.84
2023-11-03T21:34:19.638Z,94778.91
2023-11-03T21:36:28.400Z,94780.31
2023-11-03T21:38:33.332Z,94778.44
2023-11-03T21:40:38.249Z,94779.84
2023-11-03T21:42:47.562Z,94781.69
2023-11-03T21:44:50.012Z,94773.03
2023-11-03T21:46:55.313Z,94776.44
2023-11-03T21:49:00.521Z,94787.44
2023-11-03T21:51:07.204Z,94786.63
2023-11-03T21:53:12.316Z,94782.47
2023-11-03T21:55:14.896Z,94789.56
2023-11-03T21:57:19.861Z,94789.56
2023-11-03T21:59:27.469Z,94780.94
2023-11-03T22:01:32.608Z,94787.25
2023-11-03T22:03:37.930Z,94770.72
2023-11-03T22:05:43.434Z,94782.78
2023-11-03T22:07:49.632Z,94779.84
2023-11-03T22:09:54.908Z,94777.97
2023-11-03T22:12:00.040Z,94783.69
2023-11-03T22:14:05.363Z,94782.94
2023-11-03T22:16:13.943Z,94775.81
2023-11-03T22:18:19.620Z,94775.22
2023-11-03T22:20:24.902Z,94771.47
2023-11-03T22:22:29.873Z,94772.28
2023-11-03T22:24:35.795Z,94770.41
2023-11-03T22:26:44.013Z,94769.63
2023-11-03T22:28:50.624Z,94770.72
2023-11-03T22:30:55.578Z,94775.97
2023-11-03T22:33:03.292Z,94775.50
2023-11-03T22:35:08.992Z,94776.59
2023-11-03T22:37:11.462Z,94783.25
2023-11-03T22:39:20.948Z,94783.25
2023-11-03T22:41:26.556Z,94790.69
2023-11-03T22:43:31.629Z,94785.72
2023-11-03T22:45:36.688Z,94793.63
2023-11-03T22:47:43.112Z,94790.50
2023-11-03T22:49:50.789Z,94793.41
2023-11-03T22:51:53.250Z,94801.31
2023-11-03T22:53:58.226Z,94800.06
2023-11-03T22:56:00.882Z,94798.22
2023-11-03T22:58:05.865Z,94801.63
2023-11-03T23:00:14.092Z,94796.66
2023-11-03T23:02:19.358Z,94793.59
2023-11-03T23:04:24.349Z,94801.75
2023-11-03T23:06:32.114Z,94807.31
2023-11-03T23:08:37.480Z,94803.94
2023-11-03T23:10:41.501Z,94812.59
2023-11-03T23:12:47.935Z,94806.88
2023-11-03T23:14:52.928Z,94804.56
2023-11-03T23:16:59.795Z,94804.88
2023-11-03T23:19:05.725Z,94806.56
2023-11-03T23:21:12.699Z,94803.78
2023-11-03T23:23:20.860Z,94800.34
2023-11-03T23:25:25.940Z,94804.09
2023-11-03T23:27:28.270Z,94800.66
2023-11-03T23:29:33.573Z,94801.75
2023-11-03T23:31:36.382Z,94794.16
2023-11-03T23:33:41.459Z,94808.53
2023-11-03T23:35:43.902Z,94800.50
2023-11-03T23:37:48.956Z,94800.03
2023-11-03T23:39:56.700Z,94799.09
2023-11-03T23:41:59.053Z,94799.69
2023-11-03T23:44:06.088Z,94792.44
2023-11-03T23:46:11.091Z,94795.22
2023-11-03T23:48:13.723Z,94803.72
2023-11-03T23:50:18.761Z,94798.28
2023-11-03T23:52:23.679Z,94795.19
2023-11-03T23:54:28.677Z,94800.75
2023-11-03T23:56:38.472Z,94800.56
2023-11-03T23:58:44.309Z,94802.75
